Time;durP1;ratioP1;P1;durP2;ratioP2;P2;SDS_P1;SDS_P2;PMS_P1;PMS_P2;Temp;Humidity;BMP_temperature;BMP_pressure;BME280_temperature;BME280_humidity;BME280_pressure;Samples;Min_cycle;Max_cycle;Signal;HPM_P1;HPM_P2
2022/05/20 00:00:08;;;;;;;28.73;24.70;;;16.80;86.10;;;;;;5094751;28;20179;-89
2022/05/20 00:02:34;;;;;;;38.75;28.00;;;16.80;85.40;;;;;;5079410;28;20199;-89
2022/05/20 00:05:00;;;;;;;31.60;25.80;;;16.70;85.90;;;;;;5086436;28;20564;-89
2022/05/20 00:07:26;;;;;;;32.03;27.53;;;16.70;86.90;;;;;;5093332;28;20472;-89
2022/05/20 00:09:51;;;;;;;32.58;29.00;;;16.70;86.80;;;;;;5109273;28;20151;-90
2022/05/20 00:12:18;;;;;;;29.73;26.40;;;16.60;86.20;;;;;;5122442;28;20255;-90
2022/05/20 00:14:44;;;;;;;33.78;29.00;;;16.60;85.80;;;;;;5100555;28;20179;-90
2022/05/20 00:17:10;;;;;;;36.90;28.77;;;16.60;86.30;;;;;;5099932;28;20195;-90
2022/05/20 00:19:36;;;;;;;34.47;30.05;;;16.60;85.70;;;;;;5088495;28;20568;-90
2022/05/20 00:22:02;;;;;;;40.37;31.87;;;16.50;85.80;;;;;;5079625;28;20195;-90
2022/05/20 00:24:28;;;;;;;37.03;30.43;;;16.50;86.00;;;;;;5093432;28;20224;-90
2022/05/20 00:26:54;;;;;;;36.33;29.38;;;16.50;86.40;;;;;;5099266;28;20440;-90
2022/05/20 00:29:20;;;;;;;32.83;28.95;;;16.50;86.30;;;;;;5082172;28;20551;-91
2022/05/20 00:31:46;;;;;;;36.73;28.27;;;16.50;86.20;;;;;;5086365;28;20172;-90
2022/05/20 00:34:12;;;;;;;36.72;32.83;;;16.50;86.40;;;;;;5095643;28;20234;-90
2022/05/20 00:36:38;;;;;;;32.30;28.67;;;16.40;86.70;;;;;;5103028;28;20175;-90
2022/05/20 00:39:04;;;;;;;37.77;31.40;;;16.40;87.00;;;;;;5102869;28;20688;-90
2022/05/20 00:41:29;;;;;;;35.73;30.73;;;16.40;86.90;;;;;;5112293;28;20217;-90
2022/05/20 00:43:58;;;;;;;35.93;29.80;;;16.50;86.50;;;;;;5100847;28;21014;-90
2022/05/20 00:46:26;;;;;;;35.00;31.30;;;16.40;86.50;;;;;;5099445;28;20604;-90
2022/05/20 00:49:03;;;;;;;38.30;31.65;;;16.40;86.60;;;;;;5082529;28;20200;-90
2022/05/20 00:51:35;;;;;;;35.58;31.65;;;16.40;86.80;;;;;;5079599;28;20171;-89
2022/05/20 00:54:09;;;;;;;38.42;31.60;;;16.40;86.60;;;;;;5113937;28;20172;-91
2022/05/20 00:56:41;;;;;;;35.35;30.95;;;16.40;86.60;;;;;;5099930;28;20707;-90
2022/05/20 00:59:11;;;;;;;36.97;30.67;;;16.30;86.70;;;;;;5079336;28;20693;-90
2022/05/20 01:01:37;;;;;;;40.58;31.15;;;16.30;86.70;;;;;;5079680;28;20202;-90
2022/05/20 01:04:05;;;;;;;40.10;31.85;;;16.30;86.70;;;;;;5111915;28;20221;-91
2022/05/20 01:06:31;;;;;;;37.83;30.85;;;16.30;86.90;;;;;;5080627;28;20176;-90
2022/05/20 01:08:57;;;;;;;33.45;29.95;;;16.30;86.80;;;;;;5065991;28;20241;-90
2022/05/20 01:11:25;;;;;;;37.80;30.30;;;16.20;86.50;;;;;;5097755;28;20244;-91
2022/05/20 01:13:52;;;;;;;36.05;29.13;;;16.20;86.40;;;;;;5113933;28;20443;-90
2022/05/20 01:16:18;;;;;;;33.33;28.48;;;16.20;86.40;;;;;;5112395;28;20236;-90
2022/05/20 01:18:46;;;;;;;35.10;29.73;;;16.20;86.20;;;;;;5093517;28;20211;-90
2022/05/20 01:21:13;;;;;;;33.22;28.63;;;16.20;86.20;;;;;;5108732;28;20206;-90
2022/05/20 01:23:39;;;;;;;36.20;31.08;;;16.20;86.10;;;;;;5099943;28;20195;-90
2022/05/20 01:26:06;;;;;;;39.07;31.27;;;16.10;86.50;;;;;;5099352;28;20542;-89
2022/05/20 01:28:33;;;;;;;37.35;29.45;;;16.20;86.40;;;;;;5116290;28;20510;-89
2022/05/20 01:31:03;;;;;;;37.33;30.50;;;16.20;85.80;;;;;;5098808;28;20179;-90
2022/05/20 01:33:34;;;;;;;33.28;29.67;;;16.20;85.60;;;;;;5100643;28;20168;-89
2022/05/20 01:36:02;;;;;;;36.13;31.42;;;16.20;85.50;;;;;;5088353;28;20557;-90
2022/05/20 01:38:28;;;;;;;38.90;32.47;;;16.10;85.70;;;;;;5081742;28;20196;-89
2022/05/20 01:41:05;;;;;;;41.47;32.00;;;16.20;85.70;;;;;;5090646;28;20183;-91
2022/05/20 01:43:47;;;;;;;41.50;32.88;;;16.10;85.60;;;;;;5099982;28;20203;-90
2022/05/20 01:46:36;;;;;;;37.10;32.90;;;16.10;85.40;;;;;;5100703;28;20194;-90
2022/05/20 01:49:18;;;;;;;41.85;33.20;;;16.10;85.80;;;;;;5117061;28;20178;-90
2022/05/20 01:52:01;;;;;;;44.28;35.08;;;16.00;85.80;;;;;;5099127;28;20573;-90
2022/05/20 01:54:37;;;;;;;44.13;34.88;;;16.00;86.20;;;;;;5078627;28;20160;-90
2022/05/20 01:57:11;;;;;;;41.20;32.92;;;16.00;86.40;;;;;;5082013;28;20195;-90
2022/05/20 01:59:44;;;;;;;44.15;32.10;;;16.00;86.20;;;;;;5100660;28;20216;-90
2022/05/20 02:02:49;;;;;;;40.88;33.63;;;16.00;86.40;;;;;;5109650;28;20211;-91
2022/05/20 02:05:26;;;;;;;40.63;33.22;;;16.00;87.10;;;;;;5076841;28;20559;-90
2022/05/20 02:07:58;;;;;;;44.13;33.50;;;16.00;87.10;;;;;;5096027;28;20765;-90
2022/05/20 02:10:29;;;;;;;46.38;36.20;;;16.00;87.00;;;;;;5097910;28;20251;-90
2022/05/20 02:12:59;;;;;;;44.55;36.10;;;15.90;87.20;;;;;;5097991;28;20171;-90
2022/05/20 02:15:46;;;;;;;43.08;34.88;;;15.90;87.40;;;;;;5116776;28;20213;-89
2022/05/20 02:18:34;;;;;;;43.65;37.70;;;15.90;87.60;;;;;;5091259;28;20234;-89
2022/05/20 02:21:06;;;;;;;44.67;36.08;;;15.80;87.80;;;;;;5076201;28;20250;-89
2022/05/20 02:23:42;;;;;;;41.55;34.42;;;15.90;87.60;;;;;;5085174;28;20243;-90
2022/05/20 02:26:13;;;;;;;40.13;33.42;;;15.80;86.80;;;;;;5102302;28;20640;-90
2022/05/20 02:28:44;;;;;;;39.88;33.13;;;15.80;86.60;;;;;;5082559;28;20207;-91
2022/05/20 02:31:14;;;;;;;44.63;35.63;;;15.80;86.90;;;;;;5070064;28;20171;-90
2022/05/20 02:33:40;;;;;;;44.92;35.88;;;15.80;86.70;;;;;;5070658;28;20676;-90
2022/05/20 02:36:33;;;;;;;45.95;38.00;;;15.70;86.80;;;;;;5056911;28;20180;-89
2022/05/20 02:38:59;;;;;;;42.42;35.50;;;15.80;86.70;;;;;;5095716;28;20220;-90
2022/05/20 02:41:25;;;;;;;43.85;34.50;;;15.80;86.20;;;;;;5105706;28;20205;-91
2022/05/20 02:43:51;;;;;;;41.15;34.97;;;15.80;86.50;;;;;;5130294;28;20226;-89
2022/05/20 02:46:17;;;;;;;45.50;36.50;;;15.80;86.40;;;;;;5125977;28;20167;-90
2022/05/20 02:48:43;;;;;;;39.60;33.00;;;15.80;86.10;;;;;;5105149;28;20429;-90
2022/05/20 02:51:09;;;;;;;41.23;34.53;;;15.80;85.90;;;;;;5114470;28;20183;-90
2022/05/20 02:53:35;;;;;;;41.05;33.25;;;15.90;86.10;;;;;;5077248;28;20700;-90
2022/05/20 02:56:03;;;;;;;45.57;34.83;;;15.90;85.60;;;;;;5076887;28;20180;-90
2022/05/20 03:04:17;;;;;;;39.15;33.92;;;15.90;85.80;;;;;;5077631;28;20170;-89
2022/05/20 03:06:46;;;;;;;43.33;35.60;;;15.90;85.50;;;;;;5057116;28;20227;-90
2022/05/20 03:09:14;;;;;;;40.50;35.88;;;15.80;85.70;;;;;;5056694;28;20675;-89
2022/05/20 03:11:40;;;;;;;40.38;34.72;;;15.80;86.20;;;;;;5056768;28;20263;-90
2022/05/20 03:14:08;;;;;;;46.08;37.40;;;15.80;86.30;;;;;;5056804;28;20236;-89
2022/05/20 03:16:36;;;;;;;45.58;35.50;;;15.80;86.90;;;;;;5074786;28;20240;-89
2022/05/20 03:19:01;;;;;;;43.85;33.10;;;15.70;87.40;;;;;;5091347;28;20175;-90
2022/05/20 03:21:28;;;;;;;39.40;33.73;;;15.70;87.60;;;;;;5094321;28;20214;-89
2022/05/20 03:23:54;;;;;;;42.15;33.05;;;15.80;87.20;;;;;;5093940;28;20563;-90
2022/05/20 03:26:29;;;;;;;47.43;35.73;;;15.80;86.90;;;;;;5076580;28;20654;-89
2022/05/20 03:28:55;;;;;;;42.20;34.05;;;15.80;86.70;;;;;;5077341;28;20195;-90
2022/05/20 03:31:21;;;;;;;49.73;38.07;;;15.80;86.00;;;;;;5077031;28;20175;-90
2022/05/20 03:33:47;;;;;;;47.40;39.00;;;15.80;85.70;;;;;;5077497;28;20424;-90
2022/05/20 03:36:14;;;;;;;44.30;36.13;;;15.70;86.00;;;;;;5082094;28;20180;-90
2022/05/20 03:38:39;;;;;;;48.33;40.65;;;15.60;87.30;;;;;;5113433;28;20453;-91
2022/05/20 03:41:06;;;;;;;59.27;41.73;;;15.60;88.20;;;;;;5093993;28;20187;-90
2022/05/20 03:43:33;;;;;;;49.53;39.95;;;15.60;87.90;;;;;;5116977;28;20242;-90
2022/05/20 03:45:59;;;;;;;50.85;38.13;;;15.50;88.20;;;;;;5103591;28;20660;-90
2022/05/20 03:48:25;;;;;;;44.80;37.13;;;15.60;87.90;;;;;;5080977;28;20207;-90
2022/05/20 03:50:53;;;;;;;48.17;39.07;;;15.50;87.50;;;;;;5093466;28;20180;-90
2022/05/20 03:53:19;;;;;;;47.83;39.92;;;15.60;87.50;;;;;;5121291;28;20178;-90
2022/05/20 03:55:45;;;;;;;54.10;37.93;;;15.60;88.20;;;;;;5102781;28;20194;-89
2022/05/20 03:58:10;;;;;;;46.37;36.87;;;15.60;88.20;;;;;;5099774;28;20964;-89
2022/05/20 04:03:23;;;;;;;48.03;35.45;;;15.60;88.20;;;;;;5101159;28;20887;-89
2022/05/20 04:05:49;;;;;;;53.65;41.72;;;15.60;88.20;;;;;;5090139;28;20171;-89
2022/05/20 04:08:15;;;;;;;49.05;38.10;;;15.60;88.10;;;;;;5096006;28;20218;-89
2022/05/20 04:10:41;;;;;;;48.55;37.75;;;15.70;88.00;;;;;;5120852;28;20192;-90
2022/05/20 04:13:25;;;;;;;49.40;41.80;;;15.70;87.80;;;;;;5102310;28;20187;-89
2022/05/20 04:15:51;;;;;;;49.47;38.90;;;15.80;87.50;;;;;;5094669;28;20430;-89
2022/05/20 04:18:17;;;;;;;51.35;41.13;;;15.80;87.50;;;;;;5098219;28;20280;-89
2022/05/20 04:20:43;;;;;;;48.17;38.83;;;15.80;88.20;;;;;;5085121;28;20176;-90
2022/05/20 04:23:09;;;;;;;45.27;36.90;;;15.90;88.80;;;;;;5079079;28;20266;-90
2022/05/20 04:25:35;;;;;;;49.40;36.42;;;15.90;88.00;;;;;;5097100;28;20202;-90
2022/05/20 04:28:01;;;;;;;47.57;37.67;;;15.90;87.70;;;;;;5078958;28;20196;-90
2022/05/20 04:30:26;;;;;;;46.97;36.90;;;16.10;87.10;;;;;;5104670;28;20418;-89
2022/05/20 04:32:52;;;;;;;46.90;38.50;;;16.20;85.60;;;;;;5088710;28;20180;-89
2022/05/20 04:35:19;;;;;;;48.87;39.07;;;16.20;85.20;;;;;;5079841;28;20662;-89
2022/05/20 04:37:45;;;;;;;51.03;39.05;;;16.30;85.00;;;;;;5080015;28;20278;-89
2022/05/20 04:40:11;;;;;;;49.17;38.93;;;16.30;85.00;;;;;;5080017;28;20672;-89
2022/05/20 04:48:07;;;;;;;60.17;44.40;;;16.40;85.80;;;;;;5096418;28;20218;-89
2022/05/20 04:50:32;;;;;;;52.83;40.83;;;16.50;86.40;;;;;;5112868;28;20682;-89
2022/05/20 04:52:58;;;;;;;53.00;41.07;;;16.50;87.20;;;;;;5084353;28;20423;-90
2022/05/20 04:55:24;;;;;;;53.17;43.77;;;16.60;86.80;;;;;;5098208;28;20175;-89
2022/05/20 04:57:52;;;;;;;54.47;42.33;;;16.70;86.50;;;;;;5089338;28;20196;-89
2022/05/20 05:00:28;;;;;;;51.25;41.63;;;16.80;85.90;;;;;;5098082;28;20176;-89
2022/05/20 05:02:55;;;;;;;52.08;41.17;;;16.80;84.60;;;;;;5091874;28;20756;-89
2022/05/20 05:05:50;;;;;;;54.97;42.00;;;16.90;83.80;;;;;;5099799;28;20295;-89
2022/05/20 05:08:17;;;;;;;54.63;41.95;;;16.90;84.10;;;;;;5098585;28;20242;-89
2022/05/20 05:10:43;;;;;;;48.50;38.70;;;16.90;83.90;;;;;;5099407;28;20175;-89
2022/05/20 05:13:10;;;;;;;59.28;43.13;;;17.00;83.30;;;;;;5099805;28;20203;-89
2022/05/20 05:15:36;;;;;;;57.80;42.60;;;17.10;83.00;;;;;;5100868;28;20205;-89
2022/05/20 05:18:16;;;;;;;55.25;41.60;;;17.10;82.10;;;;;;5100959;28;20202;-89
2022/05/20 05:20:50;;;;;;;50.83;39.38;;;17.20;82.20;;;;;;5098214;28;20168;-88
2022/05/20 05:23:17;;;;;;;53.28;42.80;;;17.30;82.40;;;;;;5083743;28;20219;-89
2022/05/20 05:25:43;;;;;;;48.67;39.33;;;17.70;80.60;;;;;;5093276;28;20697;-89
2022/05/20 05:28:10;;;;;;;50.05;40.13;;;17.90;79.10;;;;;;5089895;28;20252;-90
2022/05/20 05:30:36;;;;;;;46.70;38.05;;;18.20;78.50;;;;;;5110782;28;20187;-90
2022/05/20 05:33:02;;;;;;;53.50;39.87;;;18.50;77.50;;;;;;5114912;28;20186;-90
2022/05/20 05:35:31;;;;;;;43.22;34.90;;;18.90;75.50;;;;;;5109579;28;20432;-88
2022/05/20 05:37:58;;;;;;;46.47;34.72;;;19.30;74.50;;;;;;5108691;28;20199;-90
2022/05/20 05:40:29;;;;;;;43.40;37.30;;;19.70;72.80;;;;;;5110054;28;20197;-89
2022/05/20 05:43:19;;;;;;;44.83;34.93;;;19.90;71.10;;;;;;5116013;28;20199;-88
2022/05/20 05:45:45;;;;;;;42.72;36.30;;;20.20;70.10;;;;;;5112547;28;20425;-89
2022/05/20 05:48:11;;;;;;;47.07;35.30;;;20.40;69.40;;;;;;5117635;28;20608;-89
2022/05/20 05:50:39;;;;;;;44.30;38.27;;;20.50;70.10;;;;;;5117704;28;20167;-89
2022/05/20 05:53:13;;;;;;;53.90;42.40;;;20.70;68.00;;;;;;5117067;28;20416;-89
2022/05/20 05:55:41;;;;;;;46.80;36.20;;;20.60;67.30;;;;;;5085835;28;20429;-88
2022/05/20 05:58:07;;;;;;;46.90;37.17;;;20.50;68.20;;;;;;5077901;28;20463;-88
2022/05/20 06:00:32;;;;;;;47.40;37.90;;;20.40;68.20;;;;;;5097275;28;20410;-89
2022/05/20 06:03:00;;;;;;;46.37;37.53;;;20.40;68.60;;;;;;5061871;28;20207;-89
2022/05/20 06:05:27;;;;;;;43.03;32.33;;;20.50;68.30;;;;;;5075214;28;20217;-89
2022/05/20 06:07:52;;;;;;;47.23;35.60;;;20.50;69.00;;;;;;5093017;28;20449;-89
2022/05/20 06:10:19;;;;;;;52.13;38.63;;;20.70;68.40;;;;;;5092784;28;20991;-88
2022/05/20 06:12:45;;;;;;;42.00;34.97;;;20.90;67.20;;;;;;5079640;28;20220;-90
2022/05/20 06:15:15;;;;;;;46.47;34.43;;;20.80;67.00;;;;;;5125892;28;20421;-92
2022/05/20 06:17:41;;;;;;;43.13;33.37;;;21.10;67.40;;;;;;5100534;28;20437;-90
2022/05/20 06:20:08;;;;;;;31.53;27.50;;;21.50;67.20;;;;;;5102774;28;20423;-87
2022/05/20 06:22:34;;;;;;;41.27;33.37;;;21.80;66.80;;;;;;5127214;28;20460;-87
2022/05/20 06:24:59;;;;;;;39.40;35.10;;;22.20;65.00;;;;;;5107941;28;20417;-87
2022/05/20 06:27:25;;;;;;;36.73;30.77;;;22.50;63.30;;;;;;5098537;28;20458;-87
2022/05/20 06:29:51;;;;;;;39.20;34.00;;;22.70;61.90;;;;;;5097605;28;20170;-87
2022/05/20 06:32:18;;;;;;;38.97;33.50;;;22.90;61.00;;;;;;5097969;28;20513;-87
2022/05/20 06:40:32;;;;;;;39.43;33.47;;;23.30;59.70;;;;;;5095298;28;20402;-92
2022/05/20 06:42:58;;;;;;;42.37;33.63;;;23.10;59.70;;;;;;5080891;28;20488;-91
2022/05/20 06:45:24;;;;;;;38.10;31.80;;;22.90;60.40;;;;;;5071674;28;20926;-87
2022/05/20 06:47:50;;;;;;;43.77;34.53;;;22.70;61.00;;;;;;5060560;28;20200;-88
2022/05/20 06:50:15;;;;;;;42.83;34.27;;;22.40;61.30;;;;;;5078225;28;20552;-88
2022/05/20 06:52:41;;;;;;;42.60;36.13;;;22.10;62.80;;;;;;5072113;28;20247;-87
2022/05/20 06:55:09;;;;;;;42.67;35.00;;;21.90;63.20;;;;;;5065329;28;20723;-88
2022/05/20 06:57:38;;;;;;;43.60;36.00;;;21.70;64.10;;;;;;5064184;28;20253;-89
2022/05/20 07:00:06;;;;;;;41.33;32.80;;;21.60;65.00;;;;;;5083009;28;20422;-88
2022/05/20 07:02:32;;;;;;;42.90;32.90;;;21.50;65.30;;;;;;5068433;28;20525;-89
2022/05/20 07:04:58;;;;;;;46.13;34.60;;;21.50;65.20;;;;;;5060573;28;20663;-88
2022/05/20 07:07:24;;;;;;;42.40;34.73;;;21.50;65.20;;;;;;5057257;28;20219;-88
2022/05/20 07:09:49;;;;;;;48.27;36.60;;;21.30;65.80;;;;;;5056743;28;20180;-88
2022/05/20 07:12:15;;;;;;;45.10;35.30;;;21.10;67.20;;;;;;5064633;28;20425;-88
2022/05/20 07:14:41;;;;;;;41.23;32.93;;;21.10;68.00;;;;;;5062920;28;20419;-88
2022/05/20 07:17:27;;;;;;;47.73;33.87;;;21.20;66.50;;;;;;5057495;28;20458;-89
2022/05/20 07:19:53;;;;;;;36.20;30.10;;;21.20;66.00;;;;;;5059191;28;20191;-88
2022/05/20 07:22:20;;;;;;;37.87;30.97;;;21.20;65.80;;;;;;5066646;28;20488;-90
2022/05/20 07:24:46;;;;;;;36.47;30.67;;;21.10;65.80;;;;;;5078410;28;21099;-89
2022/05/20 07:27:12;;;;;;;34.20;28.03;;;21.00;65.70;;;;;;5079993;28;20501;-90
2022/05/20 07:29:38;;;;;;;39.40;30.20;;;21.00;66.70;;;;;;5061171;28;20180;-90
2022/05/20 07:32:05;;;;;;;34.90;28.40;;;21.20;65.80;;;;;;5061617;28;20422;-89
2022/05/20 07:34:30;;;;;;;32.83;27.07;;;21.10;65.70;;;;;;5062746;28;20475;-90
2022/05/20 07:36:56;;;;;;;36.53;27.93;;;21.20;65.80;;;;;;5079005;28;20407;-90
2022/05/20 07:39:22;;;;;;;36.20;30.67;;;21.20;66.00;;;;;;5088882;28;20185;-90
2022/05/20 07:41:48;;;;;;;36.13;30.47;;;21.40;64.80;;;;;;5060991;28;20230;-90
2022/05/20 07:44:14;;;;;;;36.17;31.97;;;21.30;64.90;;;;;;5060666;28;20498;-90
2022/05/20 07:46:39;;;;;;;33.00;26.00;;;21.20;65.20;;;;;;5072457;28;20769;-90
2022/05/20 07:49:06;;;;;;;36.87;29.63;;;21.10;65.20;;;;;;5080265;28;20869;-90
2022/05/20 07:51:33;;;;;;;38.03;32.80;;;21.10;65.60;;;;;;5098669;28;20538;-88
2022/05/20 07:54:06;;;;;;;35.37;30.80;;;21.10;65.50;;;;;;5082803;28;20480;-88
2022/05/20 07:57:02;;;;;;;39.30;30.47;;;21.10;65.60;;;;;;5083150;28;20414;-88
2022/05/20 07:59:37;;;;;;;39.37;32.00;;;20.80;66.60;;;;;;5093576;28;20425;-91
2022/05/20 08:02:04;;;;;;;39.27;33.23;;;20.80;65.80;;;;;;5101547;28;20543;-90
2022/05/20 08:04:53;;;;;;;35.73;31.27;;;20.80;66.60;;;;;;5065222;28;20410;-90
2022/05/20 08:07:20;;;;;;;35.73;31.80;;;20.80;67.20;;;;;;5098826;28;20422;-89
2022/05/20 08:09:47;;;;;;;34.50;28.00;;;20.60;66.50;;;;;;5082258;28;20410;-90
2022/05/20 08:12:13;;;;;;;34.80;30.00;;;20.50;67.10;;;;;;5087923;28;20449;-91
2022/05/20 08:14:39;;;;;;;36.13;30.30;;;20.50;67.70;;;;;;5082465;28;20885;-89
2022/05/20 08:17:06;;;;;;;39.93;31.33;;;20.50;68.00;;;;;;5100670;28;20461;-90
2022/05/20 08:19:32;;;;;;;39.47;32.37;;;20.60;68.10;;;;;;5079958;28;20213;-90
2022/05/20 08:21:58;;;;;;;35.23;30.53;;;20.70;67.40;;;;;;5079973;28;20426;-91
2022/05/20 08:24:25;;;;;;;33.27;28.20;;;20.80;66.90;;;;;;5100254;28;20410;-91
2022/05/20 08:26:51;;;;;;;33.10;28.33;;;21.00;66.20;;;;;;5079868;28;20500;-90
2022/05/20 08:29:18;;;;;;;34.37;28.40;;;21.00;66.10;;;;;;5082397;28;20483;-91
2022/05/20 08:31:44;;;;;;;31.10;26.00;;;21.10;64.90;;;;;;5080540;28;20797;-90
2022/05/20 08:34:13;;;;;;;41.40;26.97;;;21.10;64.90;;;;;;5080863;28;20463;-90
2022/05/20 08:36:40;;;;;;;34.17;27.03;;;21.00;65.50;;;;;;5119573;28;20419;-91
2022/05/20 08:39:10;;;;;;;34.53;26.87;;;21.10;65.50;;;;;;5106985;28;20437;-91
2022/05/20 08:41:57;;;;;;;36.83;29.30;;;21.30;65.50;;;;;;5105457;28;20428;-91
2022/05/20 08:44:24;;;;;;;32.23;26.47;;;21.30;64.80;;;;;;5103419;28;20416;-91
2022/05/20 08:47:04;;;;;;;32.07;27.67;;;21.30;65.30;;;;;;5100189;28;20424;-91
2022/05/20 08:49:30;;;;;;;33.17;26.87;;;21.50;65.00;;;;;;5122805;28;20373;-90
2022/05/20 08:51:56;;;;;;;31.50;24.80;;;21.50;64.50;;;;;;5105090;28;20527;-90
2022/05/20 08:54:23;;;;;;;30.00;24.30;;;21.60;64.20;;;;;;5078764;28;20233;-90
2022/05/20 08:56:49;;;;;;;30.63;24.60;;;21.50;63.10;;;;;;5078010;28;20445;-90
2022/05/20 08:59:21;;;;;;;31.83;25.80;;;21.50;62.90;;;;;;5078462;28;20410;-90
2022/05/20 09:01:51;;;;;;;27.50;22.47;;;21.40;63.60;;;;;;5077896;28;20500;-90
2022/05/20 09:04:21;;;;;;;25.80;22.40;;;21.40;64.10;;;;;;5078595;28;20457;-90
2022/05/20 09:07:06;;;;;;;24.00;19.63;;;21.50;64.10;;;;;;5099231;28;20394;-89
2022/05/20 09:09:48;;;;;;;24.23;19.20;;;21.60;63.50;;;;;;5101006;28;20444;-89
2022/05/20 09:12:38;;;;;;;24.40;19.50;;;21.60;63.50;;;;;;5100695;28;20442;-90
2022/05/20 09:18:22;;;;;;;20.67;17.20;;;22.00;62.30;;;;;;5105062;28;20449;-91
2022/05/20 09:20:52;;;;;;;22.83;19.90;;;22.00;62.00;;;;;;5078575;28;20413;-90
2022/05/20 09:23:23;;;;;;;25.00;20.90;;;21.80;61.80;;;;;;5078918;28;20473;-90
2022/05/20 09:26:03;;;;;;;24.73;18.50;;;21.60;62.50;;;;;;5077864;28;20421;-90
2022/05/20 09:28:35;;;;;;;21.13;17.80;;;21.50;63.30;;;;;;5082739;28;20495;-89
2022/05/20 09:31:22;;;;;;;21.53;18.57;;;21.50;63.80;;;;;;5097124;28;20516;-90
2022/05/20 09:34:11;;;;;;;22.47;18.17;;;21.60;63.60;;;;;;5078122;28;20421;-91
2022/05/20 09:36:56;;;;;;;18.60;16.70;;;21.70;63.40;;;;;;5093530;28;20412;-90
2022/05/20 09:39:32;;;;;;;22.93;18.17;;;21.90;63.40;;;;;;5116051;28;20385;-90
2022/05/20 09:42:04;;;;;;;23.10;18.07;;;21.80;62.90;;;;;;5096832;28;20802;-90
2022/05/20 09:44:38;;;;;;;19.77;17.70;;;21.80;62.90;;;;;;5097180;28;20767;-91
2022/05/20 09:47:15;;;;;;;19.17;16.37;;;21.70;63.90;;;;;;5114738;28;20432;-90
2022/05/20 09:49:52;;;;;;;20.43;18.20;;;21.60;64.40;;;;;;5113780;28;20413;-90
2022/05/20 09:52:30;;;;;;;19.93;17.07;;;21.50;64.40;;;;;;5101464;28;20409;-90
2022/05/20 09:55:15;;;;;;;20.00;17.90;;;21.40;64.30;;;;;;5082142;28;20513;-90
2022/05/20 09:57:46;;;;;;;17.53;15.40;;;21.20;65.10;;;;;;5103140;28;20528;-89
2022/05/20 10:00:23;;;;;;;23.50;16.90;;;21.20;65.70;;;;;;5098713;28;20409;-90
2022/05/20 10:02:58;;;;;;;23.33;16.53;;;21.30;65.80;;;;;;5094686;28;20469;-89
2022/05/20 10:05:30;;;;;;;20.10;17.37;;;21.30;65.70;;;;;;5081332;28;20410;-90
2022/05/20 10:07:58;;;;;;;18.20;15.53;;;21.40;65.90;;;;;;5096125;28;20450;-91
2022/05/20 10:10:27;;;;;;;17.40;15.57;;;21.50;65.60;;;;;;5077433;28;20406;-90
2022/05/20 10:12:56;;;;;;;20.80;16.83;;;21.70;65.00;;;;;;5079169;28;20414;-90
2022/05/20 10:15:28;;;;;;;20.80;14.93;;;21.80;64.70;;;;;;5078272;28;20421;-90
2022/05/20 10:18:14;;;;;;;17.60;14.60;;;21.90;64.50;;;;;;5079423;28;20433;-89
2022/05/20 10:20:57;;;;;;;16.50;14.70;;;22.00;64.50;;;;;;5099879;28;20441;-90
2022/05/20 10:23:43;;;;;;;21.73;15.40;;;21.90;64.00;;;;;;5071211;28;20454;-90
2022/05/20 10:27:13;;;;;;;20.70;15.57;;;21.90;64.30;;;;;;5075572;28;20501;-91
2022/05/20 10:32:55;;;;;;;15.77;14.13;;;21.80;64.40;;;;;;5094422;28;20381;-90
2022/05/20 10:35:24;;;;;;;19.00;15.63;;;21.70;65.10;;;;;;5081368;28;20409;-90
2022/05/20 10:38:11;;;;;;;17.60;15.80;;;21.70;65.00;;;;;;5096519;28;20436;-90
2022/05/20 10:40:59;;;;;;;23.53;16.30;;;21.70;65.50;;;;;;5096128;28;20416;-90
2022/05/20 10:50:23;;;;;;;20.77;17.30;;;21.70;65.40;;;;;;5114220;28;20423;-90
2022/05/20 10:53:07;;;;;;;17.50;15.33;;;21.60;65.80;;;;;;5076656;28;20410;-90
2022/05/20 10:55:38;;;;;;;19.73;14.80;;;21.60;66.30;;;;;;5060316;28;20739;-90
2022/05/20 10:58:28;;;;;;;21.67;17.70;;;21.60;66.50;;;;;;5096678;28;20512;-90
2022/05/20 11:00:55;;;;;;;23.43;19.40;;;21.60;66.80;;;;;;5081130;28;20404;-90
2022/05/20 11:03:37;;;;;;;26.93;23.00;;;21.60;74.50;;;;;;5080970;28;20467;-90
2022/05/20 11:06:28;;;;;;;28.00;24.80;;;20.90;80.40;;;;;;5089290;28;20406;-90
2022/05/20 11:09:14;;;;;;;30.92;26.52;;;20.30;84.80;;;;;;5112513;28;20449;-90
2022/05/20 11:12:01;;;;;;;31.02;26.17;;;19.80;86.70;;;;;;5102065;28;20164;-88
2022/05/20 11:14:45;;;;;;;32.42;25.50;;;19.60;88.40;;;;;;5082350;28;20228;-90
2022/05/20 11:17:16;;;;;;;29.85;25.05;;;19.60;89.50;;;;;;5082329;28;20204;-90
2022/05/20 11:20:06;;;;;;;30.55;27.25;;;19.50;89.90;;;;;;5093533;28;20186;-90
2022/05/20 11:22:50;;;;;;;40.30;31.25;;;19.50;90.40;;;;;;5096553;28;20296;-90
2022/05/20 11:25:21;;;;;;;47.22;34.47;;;19.50;91.20;;;;;;5079611;28;20167;-90
2022/05/20 11:28:01;;;;;;;51.53;36.28;;;19.40;92.20;;;;;;5080325;28;20286;-90
2022/05/20 11:30:29;;;;;;;51.28;38.33;;;19.20;93.90;;;;;;5083910;28;20164;-90
2022/05/20 11:33:13;;;;;;;61.35;44.50;;;19.10;95.70;;;;;;5084080;28;20194;-91
2022/05/20 11:35:48;;;;;;;64.40;46.40;;;19.00;96.80;;;;;;5097141;28;20175;-89
2022/05/20 11:38:40;;;;;;;70.82;49.38;;;18.90;98.30;;;;;;5096198;28;20252;-89
2022/05/20 11:41:26;;;;;;;80.00;51.97;;;18.80;99.90;;;;;;5080660;28;20209;-91
2022/05/20 11:44:19;;;;;;;82.75;53.70;;;18.80;99.90;;;;;;5061178;28;20196;-91
2022/05/20 11:46:51;;;;;;;79.78;55.45;;;19.00;99.90;;;;;;5059402;28;20222;-90
2022/05/20 11:49:47;;;;;;;79.05;53.70;;;19.20;99.90;;;;;;5059358;28;20573;-90
2022/05/20 11:52:32;;;;;;;80.35;54.58;;;19.20;99.90;;;;;;5072300;28;20164;-90
2022/05/20 11:55:32;;;;;;;83.45;55.60;;;19.30;99.90;;;;;;5078224;28;20179;-90
2022/05/20 11:58:11;;;;;;;86.97;56.08;;;19.20;99.90;;;;;;5042366;28;20203;-91
2022/05/20 12:00:42;;;;;;;83.43;50.33;;;19.30;99.90;;;;;;5078879;28;20297;-90
2022/05/20 12:03:22;;;;;;;70.55;51.40;;;19.40;99.90;;;;;;5078651;28;20203;-90
2022/05/20 12:05:50;;;;;;;79.05;49.50;;;19.40;99.90;;;;;;5078971;28;20168;-91
2022/05/20 12:08:37;;;;;;;70.97;49.03;;;19.60;99.90;;;;;;5079264;28;20332;-90
2022/05/20 12:11:37;;;;;;;62.57;47.37;;;19.70;99.90;;;;;;5096954;28;20179;-90
2022/05/20 12:14:16;;;;;;;64.05;44.95;;;20.00;99.90;;;;;;5026212;28;20417;-90
2022/05/20 12:16:54;;;;;;;71.80;49.53;;;20.10;99.90;;;;;;5078637;28;20168;-91
2022/05/20 12:25:39;;;;;;;55.07;41.77;;;20.60;99.90;;;;;;5096259;28;20386;-91
2022/05/20 12:28:23;;;;;;;60.87;42.23;;;21.00;99.90;;;;;;5078200;28;20533;-91
2022/05/20 12:31:12;;;;;;;47.57;36.90;;;21.00;97.30;;;;;;5079166;28;20417;-91
2022/05/20 12:33:59;;;;;;;53.73;36.30;;;21.10;95.90;;;;;;5096822;28;21102;-91
2022/05/20 12:36:27;;;;;;;45.53;35.17;;;21.40;97.00;;;;;;5092553;28;20497;-91
2022/05/20 12:39:12;;;;;;;39.97;34.33;;;21.60;98.10;;;;;;5116584;28;20470;-91
2022/05/20 12:41:59;;;;;;;43.60;35.63;;;21.80;95.40;;;;;;5098786;28;20792;-91
2022/05/20 12:44:36;;;;;;;43.20;35.30;;;22.00;92.20;;;;;;5099324;28;20460;-90
2022/05/20 12:47:05;;;;;;;30.47;26.73;;;22.20;90.70;;;;;;5101230;28;20445;-91
2022/05/20 12:49:54;;;;;;;37.83;28.93;;;22.40;91.30;;;;;;5105184;28;20429;-90
2022/05/20 12:52:19;;;;;;;37.10;28.03;;;22.60;88.60;;;;;;5090535;28;20497;-91
2022/05/20 12:54:58;;;;;;;33.60;26.63;;;22.50;86.10;;;;;;5106036;28;20418;-88
2022/05/20 12:57:32;;;;;;;26.63;20.43;;;22.50;86.20;;;;;;5115335;28;20187;-90
2022/05/20 13:00:05;;;;;;;24.30;20.30;;;22.30;84.90;;;;;;5111594;28;20499;-90
2022/05/20 13:02:37;;;;;;;26.77;20.27;;;22.10;84.70;;;;;;5098530;28;20464;-90
2022/05/20 13:05:06;;;;;;;24.37;20.00;;;21.80;85.80;;;;;;5099548;28;20410;-91
2022/05/20 13:07:34;;;;;;;19.73;16.83;;;21.50;87.40;;;;;;5080986;28;20459;-89
2022/05/20 13:09:59;;;;;;;17.03;13.50;;;21.50;88.80;;;;;;5108204;28;20438;-89
2022/05/20 13:12:25;;;;;;;20.80;12.23;;;21.20;88.70;;;;;;5096208;28;20418;-89
2022/05/20 13:15:05;;;;;;;15.30;11.17;;;21.00;89.70;;;;;;5080954;28;20493;-91
2022/05/20 13:17:34;;;;;;;15.57;11.30;;;20.80;91.10;;;;;;5095846;28;20457;-90
2022/05/20 13:20:10;;;;;;;11.27;9.13;;;20.70;92.60;;;;;;5077938;28;20413;-90
2022/05/20 13:22:49;;;;;;;15.40;10.60;;;20.60;93.50;;;;;;5078366;28;20191;-90
2022/05/20 13:25:17;;;;;;;17.15;10.48;;;20.60;94.40;;;;;;5077385;28;20767;-90
2022/05/20 13:27:47;;;;;;;14.07;10.68;;;20.60;94.90;;;;;;5077546;28;20196;-90
2022/05/20 13:30:22;;;;;;;15.35;10.95;;;20.50;95.70;;;;;;5077970;28;20199;-90